sensor_id;sensor_type;location;lat;lon;timestamp;P1;durP1;ratioP1;P2;durP2;ratioP2
3811;SDS011;1921;49.368;11.068;2023-02-23T00:01:59;54.03;;;48.63;;
3811;SDS011;1921;49.368;11.068;2023-02-23T00:04:31;54.60;;;48.77;;
3811;SDS011;1921;49.368;11.068;2023-02-23T00:07:00;53.50;;;48.17;;
3811;SDS011;1921;49.368;11.068;2023-02-23T00:09:26;52.60;;;47.40;;
3811;SDS011;1921;49.368;11.068;2023-02-23T00:11:59;53.00;;;47.63;;
3811;SDS011;1921;49.368;11.068;2023-02-23T00:14:32;54.13;;;48.73;;
3811;SDS011;1921;49.368;11.068;2023-02-23T00:17:01;53.67;;;48.10;;
3811;SDS011;1921;49.368;11.068;2023-02-23T00:19:27;53.07;;;47.63;;
3811;SDS011;1921;49.368;11.068;2023-02-23T00:21:53;52.90;;;47.73;;
3811;SDS011;1921;49.368;11.068;2023-02-23T00:24:22;54.40;;;48.50;;
3811;SDS011;1921;49.368;11.068;2023-02-23T00:26:50;53.77;;;48.37;;
3811;SDS011;1921;49.368;11.068;2023-02-23T00:29:17;53.97;;;48.60;;
3811;SDS011;1921;49.368;11.068;2023-02-23T00:31:46;53.03;;;47.97;;
3811;SDS011;1921;49.368;11.068;2023-02-23T00:34:14;54.77;;;49.00;;
3811;SDS011;1921;49.368;11.068;2023-02-23T00:36:45;53.37;;;47.87;;
3811;SDS011;1921;49.368;11.068;2023-02-23T00:39:18;52.97;;;47.67;;
3811;SDS011;1921;49.368;11.068;2023-02-23T00:41:50;52.63;;;47.47;;
3811;SDS011;1921;49.368;11.068;2023-02-23T00:44:18;53.93;;;48.73;;
3811;SDS011;1921;49.368;11.068;2023-02-23T00:46:45;54.00;;;48.50;;
3811;SDS011;1921;49.368;11.068;2023-02-23T00:49:15;52.83;;;47.67;;
3811;SDS011;1921;49.368;11.068;2023-02-23T00:51:42;52.50;;;47.20;;
3811;SDS011;1921;49.368;11.068;2023-02-23T00:54:10;54.03;;;48.57;;
3811;SDS011;1921;49.368;11.068;2023-02-23T00:56:37;53.70;;;48.23;;
3811;SDS011;1921;49.368;11.068;2023-02-23T00:59:04;52.67;;;47.60;;
3811;SDS011;1921;49.368;11.068;2023-02-23T01:01:30;53.93;;;48.40;;
3811;SDS011;1921;49.368;11.068;2023-02-23T01:03:57;52.50;;;47.40;;
3811;SDS011;1921;49.368;11.068;2023-02-23T01:06:23;53.83;;;48.37;;
3811;SDS011;1921;49.368;11.068;2023-02-23T01:08:49;53.57;;;48.27;;
3811;SDS011;1921;49.368;11.068;2023-02-23T01:11:21;53.67;;;48.00;;
3811;SDS011;1921;49.368;11.068;2023-02-23T01:13:55;53.03;;;47.80;;
3811;SDS011;1921;49.368;11.068;2023-02-23T01:16:24;53.57;;;48.13;;
3811;SDS011;1921;49.368;11.068;2023-02-23T01:18:56;53.80;;;48.33;;
3811;SDS011;1921;49.368;11.068;2023-02-23T01:21:25;53.43;;;48.13;;
3811;SDS011;1921;49.368;11.068;2023-02-23T01:23:54;52.30;;;47.20;;
3811;SDS011;1921;49.368;11.068;2023-02-23T01:26:24;52.83;;;47.83;;
3811;SDS011;1921;49.368;11.068;2023-02-23T01:28:53;53.03;;;48.03;;
3811;SDS011;1921;49.368;11.068;2023-02-23T01:31:24;52.40;;;47.37;;
3811;SDS011;1921;49.368;11.068;2023-02-23T01:33:55;53.47;;;47.83;;
3811;SDS011;1921;49.368;11.068;2023-02-23T01:36:23;53.30;;;48.10;;
3811;SDS011;1921;49.368;11.068;2023-02-23T01:38:50;53.70;;;48.30;;
3811;SDS011;1921;49.368;11.068;2023-02-23T01:41:20;52.17;;;47.07;;
3811;SDS011;1921;49.368;11.068;2023-02-23T01:43:57;52.67;;;47.67;;
3811;SDS011;1921;49.368;11.068;2023-02-23T01:46:30;52.83;;;47.70;;
3811;SDS011;1921;49.368;11.068;2023-02-23T01:48:59;53.03;;;47.77;;
3811;SDS011;1921;49.368;11.068;2023-02-23T01:51:27;52.97;;;47.57;;
3811;SDS011;1921;49.368;11.068;2023-02-23T01:54:06;52.80;;;47.70;;
3811;SDS011;1921;49.368;11.068;2023-02-23T01:57:02;53.03;;;47.87;;
3811;SDS011;1921;49.368;11.068;2023-02-23T02:02:03;54.80;;;49.20;;
3811;SDS011;1921;49.368;11.068;2023-02-23T02:04:29;53.27;;;47.47;;
3811;SDS011;1921;49.368;11.068;2023-02-23T02:07:07;53.43;;;48.03;;
3811;SDS011;1921;49.368;11.068;2023-02-23T02:09:34;52.97;;;47.77;;
3811;SDS011;1921;49.368;11.068;2023-02-23T02:12:03;53.90;;;48.60;;
3811;SDS011;1921;49.368;11.068;2023-02-23T02:14:32;53.73;;;48.23;;
3811;SDS011;1921;49.368;11.068;2023-02-23T02:17:12;54.27;;;48.97;;
3811;SDS011;1921;49.368;11.068;2023-02-23T02:34:47;53.87;;;48.57;;
3811;SDS011;1921;49.368;11.068;2023-02-23T02:40:41;53.73;;;48.40;;
3811;SDS011;1921;49.368;11.068;2023-02-23T02:43:43;52.73;;;47.63;;
3811;SDS011;1921;49.368;11.068;2023-02-23T02:46:24;54.07;;;48.53;;
3811;SDS011;1921;49.368;11.068;2023-02-23T02:49:14;54.03;;;48.80;;
3811;SDS011;1921;49.368;11.068;2023-02-23T02:52:23;59.90;;;48.80;;
3811;SDS011;1921;49.368;11.068;2023-02-23T02:57:48;54.87;;;49.20;;
3811;SDS011;1921;49.368;11.068;2023-02-23T03:00:18;55.00;;;49.50;;
3811;SDS011;1921;49.368;11.068;2023-02-23T03:03:27;55.00;;;49.40;;
3811;SDS011;1921;49.368;11.068;2023-02-23T03:06:35;55.27;;;49.63;;
3811;SDS011;1921;49.368;11.068;2023-02-23T03:09:51;55.90;;;50.00;;
3811;SDS011;1921;49.368;11.068;2023-02-23T03:16:21;53.93;;;48.63;;
3811;SDS011;1921;49.368;11.068;2023-02-23T03:19:34;53.30;;;48.17;;
3811;SDS011;1921;49.368;11.068;2023-02-23T03:22:36;55.17;;;49.10;;
3811;SDS011;1921;49.368;11.068;2023-02-23T03:25:47;54.53;;;48.67;;
3811;SDS011;1921;49.368;11.068;2023-02-23T03:29:01;54.43;;;48.77;;
3811;SDS011;1921;49.368;11.068;2023-02-23T03:32:01;56.60;;;50.60;;
3811;SDS011;1921;49.368;11.068;2023-02-23T03:38:22;54.47;;;49.17;;
3811;SDS011;1921;49.368;11.068;2023-02-23T03:41:39;53.90;;;48.80;;
3811;SDS011;1921;49.368;11.068;2023-02-23T03:44:36;57.53;;;49.67;;
3811;SDS011;1921;49.368;11.068;2023-02-23T03:47:28;54.73;;;49.10;;
3811;SDS011;1921;49.368;11.068;2023-02-23T03:50:24;55.07;;;49.50;;
3811;SDS011;1921;49.368;11.068;2023-02-23T03:53:17;54.23;;;48.90;;
3811;SDS011;1921;49.368;11.068;2023-02-23T03:56:10;53.13;;;47.90;;
3811;SDS011;1921;49.368;11.068;2023-02-23T03:58:59;55.17;;;49.50;;
3811;SDS011;1921;49.368;11.068;2023-02-23T04:01:47;52.67;;;47.27;;
3811;SDS011;1921;49.368;11.068;2023-02-23T04:04:35;56.10;;;50.50;;
3811;SDS011;1921;49.368;11.068;2023-02-23T04:07:22;53.87;;;48.67;;
3811;SDS011;1921;49.368;11.068;2023-02-23T04:10:07;55.03;;;49.37;;
3811;SDS011;1921;49.368;11.068;2023-02-23T04:13:00;54.10;;;48.57;;
3811;SDS011;1921;49.368;11.068;2023-02-23T04:18:30;54.63;;;49.33;;
3811;SDS011;1921;49.368;11.068;2023-02-23T04:20:59;56.07;;;50.07;;
3811;SDS011;1921;49.368;11.068;2023-02-23T04:23:25;60.40;;;50.63;;
3811;SDS011;1921;49.368;11.068;2023-02-23T04:25:52;53.93;;;48.73;;
3811;SDS011;1921;49.368;11.068;2023-02-23T04:28:19;54.80;;;49.23;;
3811;SDS011;1921;49.368;11.068;2023-02-23T04:30:46;53.63;;;47.80;;
3811;SDS011;1921;49.368;11.068;2023-02-23T04:33:12;54.83;;;49.17;;
3811;SDS011;1921;49.368;11.068;2023-02-23T04:35:38;55.10;;;49.00;;
3811;SDS011;1921;49.368;11.068;2023-02-23T04:38:04;55.33;;;49.40;;
3811;SDS011;1921;49.368;11.068;2023-02-23T04:40:30;55.13;;;49.57;;
3811;SDS011;1921;49.368;11.068;2023-02-23T04:42:56;57.43;;;51.33;;
3811;SDS011;1921;49.368;11.068;2023-02-23T04:45:23;55.33;;;49.60;;
3811;SDS011;1921;49.368;11.068;2023-02-23T04:47:49;55.47;;;49.57;;
3811;SDS011;1921;49.368;11.068;2023-02-23T04:50:15;55.57;;;49.53;;
3811;SDS011;1921;49.368;11.068;2023-02-23T04:52:42;56.17;;;50.10;;
3811;SDS011;1921;49.368;11.068;2023-02-23T04:55:08;55.00;;;49.50;;
3811;SDS011;1921;49.368;11.068;2023-02-23T04:57:42;56.00;;;50.13;;
3811;SDS011;1921;49.368;11.068;2023-02-23T05:00:08;57.50;;;51.03;;
3811;SDS011;1921;49.368;11.068;2023-02-23T05:02:35;58.43;;;52.03;;
3811;SDS011;1921;49.368;11.068;2023-02-23T05:05:01;56.50;;;50.50;;
3811;SDS011;1921;49.368;11.068;2023-02-23T05:07:27;56.53;;;50.10;;
3811;SDS011;1921;49.368;11.068;2023-02-23T05:09:52;60.93;;;50.90;;
3811;SDS011;1921;49.368;11.068;2023-02-23T05:12:18;56.97;;;51.03;;
3811;SDS011;1921;49.368;11.068;2023-02-23T05:14:44;57.00;;;50.53;;
3811;SDS011;1921;49.368;11.068;2023-02-23T05:17:10;58.27;;;52.07;;
3811;SDS011;1921;49.368;11.068;2023-02-23T05:19:36;55.70;;;50.10;;
3811;SDS011;1921;49.368;11.068;2023-02-23T05:22:02;53.77;;;48.67;;
3811;SDS011;1921;49.368;11.068;2023-02-23T05:24:28;56.70;;;50.80;;
3811;SDS011;1921;49.368;11.068;2023-02-23T05:26:54;68.87;;;51.37;;
3811;SDS011;1921;49.368;11.068;2023-02-23T05:29:19;58.10;;;50.63;;
3811;SDS011;1921;49.368;11.068;2023-02-23T05:31:45;55.30;;;49.70;;
3811;SDS011;1921;49.368;11.068;2023-02-23T05:34:12;55.33;;;49.47;;
3811;SDS011;1921;49.368;11.068;2023-02-23T05:36:40;56.03;;;50.43;;
3811;SDS011;1921;49.368;11.068;2023-02-23T05:39:08;57.70;;;51.30;;
3811;SDS011;1921;49.368;11.068;2023-02-23T05:41:33;59.80;;;50.03;;
3811;SDS011;1921;49.368;11.068;2023-02-23T05:43:59;60.07;;;51.13;;
3811;SDS011;1921;49.368;11.068;2023-02-23T05:46:25;56.10;;;49.97;;
3811;SDS011;1921;49.368;11.068;2023-02-23T05:48:58;56.40;;;49.97;;
3811;SDS011;1921;49.368;11.068;2023-02-23T05:51:26;56.67;;;50.37;;
3811;SDS011;1921;49.368;11.068;2023-02-23T05:53:54;54.73;;;49.23;;
3811;SDS011;1921;49.368;11.068;2023-02-23T05:56:19;56.00;;;50.27;;
3811;SDS011;1921;49.368;11.068;2023-02-23T05:58:50;57.30;;;51.17;;
3811;SDS011;1921;49.368;11.068;2023-02-23T06:01:20;56.70;;;50.57;;
3811;SDS011;1921;49.368;11.068;2023-02-23T06:03:46;56.03;;;50.17;;
3811;SDS011;1921;49.368;11.068;2023-02-23T06:06:13;59.63;;;51.80;;
3811;SDS011;1921;49.368;11.068;2023-02-23T06:08:40;57.87;;;51.63;;
3811;SDS011;1921;49.368;11.068;2023-02-23T06:11:06;66.10;;;52.90;;
3811;SDS011;1921;49.368;11.068;2023-02-23T06:13:33;62.37;;;52.60;;
3811;SDS011;1921;49.368;11.068;2023-02-23T06:15:59;57.63;;;51.13;;
3811;SDS011;1921;49.368;11.068;2023-02-23T06:18:25;57.20;;;50.63;;
3811;SDS011;1921;49.368;11.068;2023-02-23T06:20:52;62.53;;;51.03;;
3811;SDS011;1921;49.368;11.068;2023-02-23T06:23:18;64.87;;;52.07;;
3811;SDS011;1921;49.368;11.068;2023-02-23T06:25:44;58.27;;;52.10;;
3811;SDS011;1921;49.368;11.068;2023-02-23T06:28:11;62.53;;;53.97;;
3811;SDS011;1921;49.368;11.068;2023-02-23T06:30:38;58.33;;;51.97;;
3811;SDS011;1921;49.368;11.068;2023-02-23T06:33:05;65.63;;;52.07;;
3811;SDS011;1921;49.368;11.068;2023-02-23T06:35:32;66.10;;;52.57;;
3811;SDS011;1921;49.368;11.068;2023-02-23T06:37:58;58.87;;;51.57;;
3811;SDS011;1921;49.368;11.068;2023-02-23T06:40:25;58.13;;;52.30;;
3811;SDS011;1921;49.368;11.068;2023-02-23T06:42:52;62.57;;;52.60;;
3811;SDS011;1921;49.368;11.068;2023-02-23T06:45:18;73.87;;;53.60;;
3811;SDS011;1921;49.368;11.068;2023-02-23T06:47:44;64.20;;;52.50;;
3811;SDS011;1921;49.368;11.068;2023-02-23T06:50:11;60.53;;;52.90;;
3811;SDS011;1921;49.368;11.068;2023-02-23T06:52:37;63.63;;;53.40;;
3811;SDS011;1921;49.368;11.068;2023-02-23T06:55:03;60.13;;;53.60;;
3811;SDS011;1921;49.368;11.068;2023-02-23T06:57:30;72.07;;;54.23;;
3811;SDS011;1921;49.368;11.068;2023-02-23T06:59:55;66.67;;;54.10;;
3811;SDS011;1921;49.368;11.068;2023-02-23T07:02:21;62.93;;;53.93;;
3811;SDS011;1921;49.368;11.068;2023-02-23T07:04:47;62.77;;;53.10;;
3811;SDS011;1921;49.368;11.068;2023-02-23T07:07:13;61.20;;;52.30;;
3811;SDS011;1921;49.368;11.068;2023-02-23T07:09:39;68.57;;;54.57;;
3811;SDS011;1921;49.368;11.068;2023-02-23T07:12:06;68.17;;;55.80;;
3811;SDS011;1921;49.368;11.068;2023-02-23T07:14:34;64.50;;;52.60;;
3811;SDS011;1921;49.368;11.068;2023-02-23T07:17:00;76.07;;;54.03;;
3811;SDS011;1921;49.368;11.068;2023-02-23T07:19:26;70.67;;;55.80;;
3811;SDS011;1921;49.368;11.068;2023-02-23T07:21:51;67.70;;;55.63;;
3811;SDS011;1921;49.368;11.068;2023-02-23T07:24:17;75.67;;;56.37;;
3811;SDS011;1921;49.368;11.068;2023-02-23T07:26:43;64.37;;;55.53;;
3811;SDS011;1921;49.368;11.068;2023-02-23T07:29:11;69.73;;;54.37;;
3811;SDS011;1921;49.368;11.068;2023-02-23T07:31:37;68.53;;;55.07;;
3811;SDS011;1921;49.368;11.068;2023-02-23T07:34:04;76.57;;;57.47;;
3811;SDS011;1921;49.368;11.068;2023-02-23T07:36:30;61.17;;;53.93;;
3811;SDS011;1921;49.368;11.068;2023-02-23T07:38:56;76.77;;;56.10;;
3811;SDS011;1921;49.368;11.068;2023-02-23T07:41:22;75.33;;;57.40;;
3811;SDS011;1921;49.368;11.068;2023-02-23T07:43:49;95.17;;;59.20;;
3811;SDS011;1921;49.368;11.068;2023-02-23T07:46:14;80.50;;;56.60;;
3811;SDS011;1921;49.368;11.068;2023-02-23T07:48:41;80.17;;;58.23;;
3811;SDS011;1921;49.368;11.068;2023-02-23T07:51:09;69.43;;;54.67;;
3811;SDS011;1921;49.368;11.068;2023-02-23T07:53:37;69.60;;;57.80;;
3811;SDS011;1921;49.368;11.068;2023-02-23T07:56:04;68.07;;;55.50;;
3811;SDS011;1921;49.368;11.068;2023-02-23T07:58:30;63.60;;;55.00;;
3811;SDS011;1921;49.368;11.068;2023-02-23T08:00:56;76.33;;;58.43;;
3811;SDS011;1921;49.368;11.068;2023-02-23T08:03:22;73.90;;;56.30;;
3811;SDS011;1921;49.368;11.068;2023-02-23T08:05:48;64.77;;;54.60;;
3811;SDS011;1921;49.368;11.068;2023-02-23T08:08:14;81.13;;;55.90;;
3811;SDS011;1921;49.368;11.068;2023-02-23T08:10:40;72.73;;;56.10;;
3811;SDS011;1921;49.368;11.068;2023-02-23T08:13:06;76.67;;;55.30;;
3811;SDS011;1921;49.368;11.068;2023-02-23T08:15:32;66.50;;;55.00;;
3811;SDS011;1921;49.368;11.068;2023-02-23T08:17:58;63.27;;;54.00;;
3811;SDS011;1921;49.368;11.068;2023-02-23T08:20:24;71.70;;;55.17;;
3811;SDS011;1921;49.368;11.068;2023-02-23T08:22:54;65.10;;;54.70;;
3811;SDS011;1921;49.368;11.068;2023-02-23T08:25:21;74.50;;;55.03;;
3811;SDS011;1921;49.368;11.068;2023-02-23T08:27:48;65.67;;;54.70;;
3811;SDS011;1921;49.368;11.068;2023-02-23T08:30:20;73.67;;;55.60;;
3811;SDS011;1921;49.368;11.068;2023-02-23T08:32:47;76.90;;;54.87;;
3811;SDS011;1921;49.368;11.068;2023-02-23T08:35:15;70.43;;;53.60;;
3811;SDS011;1921;49.368;11.068;2023-02-23T08:37:42;67.30;;;53.90;;
3811;SDS011;1921;49.368;11.068;2023-02-23T08:40:09;72.23;;;54.70;;
3811;SDS011;1921;49.368;11.068;2023-02-23T08:42:39;76.03;;;56.43;;
3811;SDS011;1921;49.368;11.068;2023-02-23T08:45:08;67.87;;;56.80;;
3811;SDS011;1921;49.368;11.068;2023-02-23T08:47:35;78.77;;;57.13;;
3811;SDS011;1921;49.368;11.068;2023-02-23T08:50:01;75.30;;;56.30;;
3811;SDS011;1921;49.368;11.068;2023-02-23T08:52:30;73.53;;;56.00;;
3811;SDS011;1921;49.368;11.068;2023-02-23T08:54:56;66.50;;;54.67;;
3811;SDS011;1921;49.368;11.068;2023-02-23T08:57:22;76.00;;;55.43;;
3811;SDS011;1921;49.368;11.068;2023-02-23T08:59:48;70.23;;;55.93;;
3811;SDS011;1921;49.368;11.068;2023-02-23T09:02:14;72.63;;;56.53;;
3811;SDS011;1921;49.368;11.068;2023-02-23T09:04:40;71.83;;;55.47;;
3811;SDS011;1921;49.368;11.068;2023-02-23T09:07:06;66.83;;;54.47;;
3811;SDS011;1921;49.368;11.068;2023-02-23T09:09:34;76.37;;;55.80;;
3811;SDS011;1921;49.368;11.068;2023-02-23T09:12:00;70.70;;;56.00;;
3811;SDS011;1921;49.368;11.068;2023-02-23T09:14:26;77.67;;;56.17;;
3811;SDS011;1921;49.368;11.068;2023-02-23T09:16:52;72.20;;;55.50;;
3811;SDS011;1921;49.368;11.068;2023-02-23T09:19:17;67.40;;;55.17;;
3811;SDS011;1921;49.368;11.068;2023-02-23T09:21:44;71.87;;;56.27;;
3811;SDS011;1921;49.368;11.068;2023-02-23T09:24:09;68.47;;;55.37;;
3811;SDS011;1921;49.368;11.068;2023-02-23T09:26:35;75.33;;;55.87;;
3811;SDS011;1921;49.368;11.068;2023-02-23T09:29:04;68.90;;;55.20;;
3811;SDS011;1921;49.368;11.068;2023-02-23T09:31:31;68.90;;;56.47;;
3811;SDS011;1921;49.368;11.068;2023-02-23T09:33:57;72.70;;;54.80;;
3811;SDS011;1921;49.368;11.068;2023-02-23T09:36:26;75.17;;;55.70;;
3811;SDS011;1921;49.368;11.068;2023-02-23T09:38:54;71.63;;;56.00;;
3811;SDS011;1921;49.368;11.068;2023-02-23T09:49:41;66.63;;;55.77;;
3811;SDS011;1921;49.368;11.068;2023-02-23T09:52:16;84.50;;;57.67;;
3811;SDS011;1921;49.368;11.068;2023-02-23T09:54:51;71.57;;;57.40;;
3811;SDS011;1921;49.368;11.068;2023-02-23T09:57:22;76.20;;;56.23;;
3811;SDS011;1921;49.368;11.068;2023-02-23T10:00:00;76.80;;;57.53;;
3811;SDS011;1921;49.368;11.068;2023-02-23T10:02:36;71.50;;;55.80;;
3811;SDS011;1921;49.368;11.068;2023-02-23T10:05:09;78.67;;;57.37;;
3811;SDS011;1921;49.368;11.068;2023-02-23T10:21:38;77.80;;;57.20;;
3811;SDS011;1921;49.368;11.068;2023-02-23T10:24:11;72.80;;;56.40;;
3811;SDS011;1921;49.368;11.068;2023-02-23T10:26:52;73.90;;;57.13;;
3811;SDS011;1921;49.368;11.068;2023-02-23T10:29:25;78.20;;;56.80;;
3811;SDS011;1921;49.368;11.068;2023-02-23T10:31:59;82.50;;;56.97;;
3811;SDS011;1921;49.368;11.068;2023-02-23T10:34:31;83.03;;;58.30;;
3811;SDS011;1921;49.368;11.068;2023-02-23T10:37:01;78.10;;;57.00;;
3811;SDS011;1921;49.368;11.068;2023-02-23T10:39:30;79.17;;;58.07;;
3811;SDS011;1921;49.368;11.068;2023-02-23T10:41:58;82.40;;;58.43;;
3811;SDS011;1921;49.368;11.068;2023-02-23T10:44:31;77.33;;;57.17;;
3811;SDS011;1921;49.368;11.068;2023-02-23T10:46:59;79.30;;;57.40;;
3811;SDS011;1921;49.368;11.068;2023-02-23T10:49:46;81.00;;;58.80;;
3811;SDS011;1921;49.368;11.068;2023-02-23T10:52:17;73.67;;;57.10;;
3811;SDS011;1921;49.368;11.068;2023-02-23T10:58:01;77.17;;;58.37;;
3811;SDS011;1921;49.368;11.068;2023-02-23T11:00:40;73.97;;;56.20;;
3811;SDS011;1921;49.368;11.068;2023-02-23T11:03:37;75.93;;;57.70;;
3811;SDS011;1921;49.368;11.068;2023-02-23T11:06:28;79.60;;;57.93;;
3811;SDS011;1921;49.368;11.068;2023-02-23T11:08:57;84.43;;;58.07;;
3811;SDS011;1921;49.368;11.068;2023-02-23T11:11:40;81.93;;;57.90;;
3811;SDS011;1921;49.368;11.068;2023-02-23T11:14:22;81.17;;;57.67;;
3811;SDS011;1921;49.368;11.068;2023-02-23T11:16:51;80.63;;;57.77;;
3811;SDS011;1921;49.368;11.068;2023-02-23T11:19:23;74.40;;;57.77;;
3811;SDS011;1921;49.368;11.068;2023-02-23T11:22:03;74.40;;;57.20;;
3811;SDS011;1921;49.368;11.068;2023-02-23T11:24:39;74.07;;;55.60;;
3811;SDS011;1921;49.368;11.068;2023-02-23T11:27:06;75.00;;;57.30;;
3811;SDS011;1921;49.368;11.068;2023-02-23T11:29:45;79.50;;;57.30;;
3811;SDS011;1921;49.368;11.068;2023-02-23T11:35:09;82.20;;;58.13;;
3811;SDS011;1921;49.368;11.068;2023-02-23T11:37:44;72.60;;;55.67;;
3811;SDS011;1921;49.368;11.068;2023-02-23T11:40:31;75.73;;;57.47;;
3811;SDS011;1921;49.368;11.068;2023-02-23T11:43:12;75.20;;;56.43;;
3811;SDS011;1921;49.368;11.068;2023-02-23T11:45:50;76.87;;;56.83;;
3811;SDS011;1921;49.368;11.068;2023-02-23T11:48:30;68.43;;;55.90;;
3811;SDS011;1921;49.368;11.068;2023-02-23T11:51:02;85.63;;;56.27;;
3811;SDS011;1921;49.368;11.068;2023-02-23T11:56:04;76.53;;;55.87;;
3811;SDS011;1921;49.368;11.068;2023-02-23T11:58:38;75.30;;;56.33;;
3811;SDS011;1921;49.368;11.068;2023-02-23T12:01:13;80.30;;;56.40;;
3811;SDS011;1921;49.368;11.068;2023-02-23T12:06:34;79.70;;;57.53;;
3811;SDS011;1921;49.368;11.068;2023-02-23T12:09:19;74.40;;;54.87;;
3811;SDS011;1921;49.368;11.068;2023-02-23T12:11:53;71.87;;;55.30;;
3811;SDS011;1921;49.368;11.068;2023-02-23T12:14:39;70.23;;;54.40;;
3811;SDS011;1921;49.368;11.068;2023-02-23T12:17:17;72.00;;;55.50;;
3811;SDS011;1921;49.368;11.068;2023-02-23T12:22:44;66.63;;;52.97;;
3811;SDS011;1921;49.368;11.068;2023-02-23T12:25:44;74.87;;;56.20;;
3811;SDS011;1921;49.368;11.068;2023-02-23T12:34:09;68.20;;;54.30;;
3811;SDS011;1921;49.368;11.068;2023-02-23T12:36:58;69.73;;;54.53;;
3811;SDS011;1921;49.368;11.068;2023-02-23T12:39:41;72.40;;;55.40;;
3811;SDS011;1921;49.368;11.068;2023-02-23T12:42:16;67.43;;;52.80;;
3811;SDS011;1921;49.368;11.068;2023-02-23T12:45:55;63.30;;;53.00;;
3811;SDS011;1921;49.368;11.068;2023-02-23T12:50:54;67.30;;;52.60;;
3811;SDS011;1921;49.368;11.068;2023-02-23T12:53:27;65.07;;;52.40;;
3811;SDS011;1921;49.368;11.068;2023-02-23T12:56:13;62.83;;;51.67;;
3811;SDS011;1921;49.368;11.068;2023-02-23T13:01:33;61.30;;;51.43;;
3811;SDS011;1921;49.368;11.068;2023-02-23T13:07:33;59.97;;;51.60;;
3811;SDS011;1921;49.368;11.068;2023-02-23T13:15:57;62.17;;;51.40;;
3811;SDS011;1921;49.368;11.068;2023-02-23T13:21:37;58.97;;;51.50;;
3811;SDS011;1921;49.368;11.068;2023-02-23T13:24:17;60.13;;;50.90;;
3811;SDS011;1921;49.368;11.068;2023-02-23T13:27:00;56.20;;;50.10;;
3811;SDS011;1921;49.368;11.068;2023-02-23T13:29:41;56.67;;;50.47;;
3811;SDS011;1921;49.368;11.068;2023-02-23T13:32:10;60.47;;;51.40;;
3811;SDS011;1921;49.368;11.068;2023-02-23T13:34:43;57.40;;;50.90;;
3811;SDS011;1921;49.368;11.068;2023-02-23T13:37:16;57.90;;;51.30;;
3811;SDS011;1921;49.368;11.068;2023-02-23T13:39:51;60.17;;;50.50;;
3811;SDS011;1921;49.368;11.068;2023-02-23T13:45:35;61.33;;;51.83;;
3811;SDS011;1921;49.368;11.068;2023-02-23T13:51:13;58.00;;;50.60;;
3811;SDS011;1921;49.368;11.068;2023-02-23T13:56:27;61.63;;;52.07;;
3811;SDS011;1921;49.368;11.068;2023-02-23T13:59:01;61.57;;;51.00;;
3811;SDS011;1921;49.368;11.068;2023-02-23T14:01:41;60.60;;;51.03;;
3811;SDS011;1921;49.368;11.068;2023-02-23T14:04:13;63.27;;;51.77;;
3811;SDS011;1921;49.368;11.068;2023-02-23T14:09:34;66.03;;;51.97;;
3811;SDS011;1921;49.368;11.068;2023-02-23T14:12:38;59.13;;;50.97;;
3811;SDS011;1921;49.368;11.068;2023-02-23T14:17:57;59.60;;;52.43;;
3811;SDS011;1921;49.368;11.068;2023-02-23T14:23:33;64.93;;;52.70;;
3811;SDS011;1921;49.368;11.068;2023-02-23T14:28:46;65.70;;;52.13;;
3811;SDS011;1921;49.368;11.068;2023-02-23T14:37:41;65.67;;;53.10;;
3811;SDS011;1921;49.368;11.068;2023-02-23T14:40:14;62.20;;;52.53;;
3811;SDS011;1921;49.368;11.068;2023-02-23T14:42:50;63.80;;;51.50;;
3811;SDS011;1921;49.368;11.068;2023-02-23T14:45:24;58.00;;;51.73;;
3811;SDS011;1921;49.368;11.068;2023-02-23T14:47:55;61.67;;;52.20;;
3811;SDS011;1921;49.368;11.068;2023-02-23T14:50:30;61.27;;;52.00;;
3811;SDS011;1921;49.368;11.068;2023-02-23T14:52:58;67.07;;;52.63;;
3811;SDS011;1921;49.368;11.068;2023-02-23T14:55:27;66.03;;;52.43;;
3811;SDS011;1921;49.368;11.068;2023-02-23T14:57:57;67.93;;;52.40;;
3811;SDS011;1921;49.368;11.068;2023-02-23T15:00:27;63.80;;;53.70;;
3811;SDS011;1921;49.368;11.068;2023-02-23T15:03:06;61.20;;;51.93;;
3811;SDS011;1921;49.368;11.068;2023-02-23T15:05:45;63.60;;;53.03;;
3811;SDS011;1921;49.368;11.068;2023-02-23T15:08:19;61.30;;;52.70;;
3811;SDS011;1921;49.368;11.068;2023-02-23T15:10:59;61.43;;;51.90;;
3811;SDS011;1921;49.368;11.068;2023-02-23T15:13:35;59.47;;;51.70;;
3811;SDS011;1921;49.368;11.068;2023-02-23T15:16:29;63.07;;;54.23;;
3811;SDS011;1921;49.368;11.068;2023-02-23T15:21:59;61.00;;;50.93;;
3811;SDS011;1921;49.368;11.068;2023-02-23T15:24:41;64.80;;;51.80;;
3811;SDS011;1921;49.368;11.068;2023-02-23T15:27:19;62.90;;;52.67;;
3811;SDS011;1921;49.368;11.068;2023-02-23T15:29:48;63.67;;;52.70;;
3811;SDS011;1921;49.368;11.068;2023-02-23T15:32:19;63.03;;;52.23;;
3811;SDS011;1921;49.368;11.068;2023-02-23T15:34:51;63.87;;;51.53;;
3811;SDS011;1921;49.368;11.068;2023-02-23T15:37:28;60.87;;;52.63;;
3811;SDS011;1921;49.368;11.068;2023-02-23T15:40:13;57.67;;;50.43;;
3811;SDS011;1921;49.368;11.068;2023-02-23T15:42:48;60.60;;;53.03;;
3811;SDS011;1921;49.368;11.068;2023-02-23T15:47:54;67.20;;;52.87;;
3811;SDS011;1921;49.368;11.068;2023-02-23T15:50:27;62.67;;;51.80;;
3811;SDS011;1921;49.368;11.068;2023-02-23T15:53:16;59.20;;;51.60;;
3811;SDS011;1921;49.368;11.068;2023-02-23T15:55:53;63.27;;;52.37;;
3811;SDS011;1921;49.368;11.068;2023-02-23T15:58:31;68.30;;;51.53;;
3811;SDS011;1921;49.368;11.068;2023-02-23T16:01:20;58.47;;;52.10;;
3811;SDS011;1921;49.368;11.068;2023-02-23T16:04:01;61.67;;;52.37;;
3811;SDS011;1921;49.368;11.068;2023-02-23T16:06:38;60.40;;;52.30;;
3811;SDS011;1921;49.368;11.068;2023-02-23T16:09:37;60.80;;;52.00;;
3811;SDS011;1921;49.368;11.068;2023-02-23T16:12:07;68.10;;;52.70;;
3811;SDS011;1921;49.368;11.068;2023-02-23T16:14:48;68.53;;;52.63;;
3811;SDS011;1921;49.368;11.068;2023-02-23T16:23:06;62.07;;;52.03;;
3811;SDS011;1921;49.368;11.068;2023-02-23T16:26:07;62.93;;;51.87;;
3811;SDS011;1921;49.368;11.068;2023-02-23T16:28:43;63.77;;;53.03;;
3811;SDS011;1921;49.368;11.068;2023-02-23T16:31:11;62.63;;;51.50;;
3811;SDS011;1921;49.368;11.068;2023-02-23T16:33:56;67.00;;;53.37;;
3811;SDS011;1921;49.368;11.068;2023-02-23T16:36:35;64.13;;;52.67;;
3811;SDS011;1921;49.368;11.068;2023-02-23T16:39:05;67.30;;;53.47;;
3811;SDS011;1921;49.368;11.068;2023-02-23T16:41:36;58.30;;;52.00;;
3811;SDS011;1921;49.368;11.068;2023-02-23T16:44:03;58.90;;;52.03;;
3811;SDS011;1921;49.368;11.068;2023-02-23T16:49:29;59.07;;;52.57;;
3811;SDS011;1921;49.368;11.068;2023-02-23T16:51:55;61.40;;;51.57;;
3811;SDS011;1921;49.368;11.068;2023-02-23T16:54:22;60.40;;;51.57;;
3811;SDS011;1921;49.368;11.068;2023-02-23T16:56:49;64.47;;;52.47;;
3811;SDS011;1921;49.368;11.068;2023-02-23T16:59:19;58.83;;;51.43;;
3811;SDS011;1921;49.368;11.068;2023-02-23T17:01:46;60.83;;;50.60;;
3811;SDS011;1921;49.368;11.068;2023-02-23T17:04:14;58.97;;;51.40;;
3811;SDS011;1921;49.368;11.068;2023-02-23T17:06:44;58.90;;;50.50;;
3811;SDS011;1921;49.368;11.068;2023-02-23T17:09:19;58.67;;;51.20;;
3811;SDS011;1921;49.368;11.068;2023-02-23T17:11:45;62.30;;;51.50;;
3811;SDS011;1921;49.368;11.068;2023-02-23T17:14:15;58.23;;;50.70;;
3811;SDS011;1921;49.368;11.068;2023-02-23T17:16:51;56.27;;;50.27;;
3811;SDS011;1921;49.368;11.068;2023-02-23T17:19:17;56.43;;;50.27;;
3811;SDS011;1921;49.368;11.068;2023-02-23T17:21:45;57.63;;;51.20;;
3811;SDS011;1921;49.368;11.068;2023-02-23T17:24:11;63.53;;;50.73;;